createdAt,value
2023-03-07T00:00:16.946Z,29.63
2023-03-07T00:02:43.769Z,30.10
2023-03-07T00:05:10.626Z,30.63
2023-03-07T00:07:39.618Z,29.70
2023-03-07T00:10:07.013Z,29.90
2023-03-07T00:12:33.886Z,30.07
2023-03-07T00:15:00.686Z,27.83
2023-03-07T00:17:27.451Z,26.57
2023-03-07T00:19:54.221Z,27.10
2023-03-07T00:22:21.177Z,25.40
2023-03-07T00:24:51.061Z,25.90
2023-03-07T00:27:17.897Z,26.27
2023-03-07T00:29:44.698Z,24.87
2023-03-07T00:32:13.860Z,25.43
2023-03-07T00:34:40.802Z,25.37
2023-03-07T00:37:09.878Z,25.17
2023-03-07T00:39:36.659Z,24.80
2023-03-07T00:42:05.753Z,25.67
2023-03-07T00:44:32.943Z,25.00
2023-03-07T00:47:02.548Z,25.80
2023-03-07T00:49:29.353Z,28.37
2023-03-07T00:51:56.139Z,28.20
2023-03-07T00:54:22.911Z,26.73
2023-03-07T00:56:49.789Z,27.67
2023-03-07T00:59:16.589Z,26.00
2023-03-07T01:01:45.929Z,27.83
2023-03-07T01:04:12.715Z,26.97
2023-03-07T01:06:39.544Z,27.17
2023-03-07T01:09:10.079Z,28.50
2023-03-07T01:11:37.081Z,28.23
2023-03-07T01:14:04.915Z,27.40
2023-03-07T01:16:36.445Z,27.27
2023-03-07T01:19:07.250Z,27.87
2023-03-07T01:21:38.193Z,25.77
2023-03-07T01:24:07.994Z,25.10
2023-03-07T01:26:35.040Z,24.33
2023-03-07T01:29:05.393Z,24.00
2023-03-07T01:31:32.649Z,24.63
2023-03-07T01:33:59.746Z,25.40
2023-03-07T01:36:31.345Z,26.37
2023-03-07T01:39:02.849Z,24.07
2023-03-07T01:41:32.484Z,22.90
2023-03-07T01:44:10.580Z,22.67
2023-03-07T01:46:58.147Z,21.70
2023-03-07T01:49:42.647Z,21.60
2023-03-07T01:52:12.048Z,21.17
2023-03-07T01:54:48.758Z,21.00
2023-03-07T01:57:17.723Z,20.73
2023-03-07T01:59:47.398Z,19.77
2023-03-07T02:02:17.258Z,20.40
2023-03-07T02:04:50.112Z,19.10
2023-03-07T02:07:17.760Z,20.03
2023-03-07T02:09:44.545Z,20.43
2023-03-07T02:12:11.510Z,20.23
2023-03-07T02:14:38.264Z,20.90
2023-03-07T02:17:08.113Z,20.70
2023-03-07T02:19:34.876Z,20.73
2023-03-07T02:22:17.715Z,20.40
2023-03-07T02:24:58.452Z,21.87
2023-03-07T02:27:27.765Z,21.60
2023-03-07T02:29:54.532Z,22.07
2023-03-07T02:32:21.505Z,22.93
2023-03-07T02:34:48.409Z,22.87
2023-03-07T02:37:35.684Z,24.73
2023-03-07T02:40:06.098Z,27.50
2023-03-07T02:42:33.468Z,25.27
2023-03-07T02:45:01.541Z,25.33
2023-03-07T02:47:30.466Z,29.67
2023-03-07T02:49:59.736Z,29.03
2023-03-07T02:52:28.651Z,30.47
2023-03-07T02:54:56.020Z,31.13
2023-03-07T02:57:22.867Z,32.93
2023-03-07T02:59:49.708Z,32.10
2023-03-07T03:02:16.549Z,33.60
2023-03-07T03:04:43.419Z,32.97
2023-03-07T03:07:10.330Z,32.17
2023-03-07T03:09:41.453Z,35.00
2023-03-07T03:12:10.786Z,34.87
2023-03-07T03:14:40.194Z,35.67
2023-03-07T03:17:06.993Z,37.27
2023-03-07T03:19:33.837Z,38.17
2023-03-07T03:22:00.612Z,40.73
2023-03-07T03:24:27.398Z,40.70
2023-03-07T03:26:58.595Z,40.33
2023-03-07T03:29:28.168Z,42.93
2023-03-07T03:31:55.721Z,41.53
2023-03-07T03:34:22.484Z,40.47
2023-03-07T03:36:49.269Z,42.73
2023-03-07T03:39:16.160Z,42.33
2023-03-07T03:41:45.451Z,43.63
2023-03-07T03:44:12.237Z,45.63
2023-03-07T03:46:41.257Z,47.37
2023-03-07T03:49:08.096Z,48.03
2023-03-07T03:51:34.876Z,47.50
2023-03-07T03:54:01.704Z,46.30
2023-03-07T03:56:29.668Z,46.60
2023-03-07T03:58:56.901Z,49.27
2023-03-07T04:01:27.141Z,48.27
2023-03-07T04:03:56.523Z,45.37
2023-03-07T04:06:24.966Z,47.97
2023-03-07T04:08:54.654Z,48.47
2023-03-07T04:11:21.965Z,46.27
2023-03-07T04:13:53.497Z,42.40
2023-03-07T04:16:22.518Z,45.90
2023-03-07T04:18:52.656Z,41.00
2023-03-07T04:21:26.568Z,41.57
2023-03-07T04:23:57.162Z,39.83
2023-03-07T04:26:26.183Z,40.27
2023-03-07T04:28:57.557Z,40.40
2023-03-07T04:31:25.976Z,37.67
2023-03-07T04:33:58.926Z,36.13
2023-03-07T04:36:25.803Z,36.03
2023-03-07T04:38:52.624Z,35.97
2023-03-07T04:41:23.637Z,36.23
2023-03-07T04:43:50.488Z,34.70
2023-03-07T04:46:17.592Z,34.77
2023-03-07T04:48:47.200Z,34.03
2023-03-07T04:51:14.137Z,32.23
2023-03-07T04:53:43.069Z,34.60
2023-03-07T04:56:09.966Z,34.93
2023-03-07T04:58:40.047Z,32.40
2023-03-07T05:01:06.864Z,32.30
2023-03-07T05:03:34.189Z,32.83
2023-03-07T05:06:05.860Z,32.67
2023-03-07T05:08:32.723Z,31.87
2023-03-07T05:11:01.700Z,32.93
2023-03-07T05:13:28.514Z,31.63
2023-03-07T05:15:58.307Z,32.00
2023-03-07T05:18:28.413Z,30.53
2023-03-07T05:20:57.451Z,32.27
2023-03-07T05:23:24.238Z,32.13
2023-03-07T05:25:53.193Z,31.43
2023-03-07T05:28:20.024Z,32.57
2023-03-07T05:30:47.124Z,31.87
2023-03-07T05:33:16.496Z,30.97
2023-03-07T05:35:43.419Z,33.90
2023-03-07T05:38:10.522Z,33.90
2023-03-07T05:40:37.379Z,33.73
2023-03-07T05:43:04.246Z,34.97
2023-03-07T05:45:31.043Z,35.97
2023-03-07T05:48:02.537Z,36.60
2023-03-07T05:50:29.312Z,35.60
2023-03-07T05:52:56.143Z,35.33
2023-03-07T05:55:23.040Z,36.73
2023-03-07T05:57:50.404Z,37.30
2023-03-07T06:00:17.717Z,36.70
2023-03-07T06:02:46.672Z,38.70
2023-03-07T06:05:14.279Z,39.40
2023-03-07T06:07:41.088Z,38.53
2023-03-07T06:10:11.854Z,37.63
2023-03-07T06:12:38.668Z,38.80
2023-03-07T06:15:05.971Z,36.93
2023-03-07T06:17:32.748Z,37.90
2023-03-07T06:20:01.731Z,39.03
2023-03-07T06:22:29.136Z,39.83
2023-03-07T06:24:58.414Z,37.90
2023-03-07T06:27:27.773Z,36.63
2023-03-07T06:29:54.552Z,34.47
2023-03-07T06:32:24.289Z,35.70
2023-03-07T06:34:51.196Z,33.33
2023-03-07T06:37:17.980Z,32.37
2023-03-07T06:39:44.823Z,33.33
2023-03-07T06:42:11.610Z,33.57
2023-03-07T06:44:42.350Z,35.00
2023-03-07T06:47:10.422Z,34.37
2023-03-07T06:49:37.354Z,33.77
2023-03-07T06:52:08.838Z,33.77
2023-03-07T06:54:35.600Z,34.67
2023-03-07T06:57:02.356Z,33.47
2023-03-07T06:59:29.127Z,32.50
2023-03-07T07:01:56.075Z,33.10
2023-03-07T07:04:25.426Z,33.67
2023-03-07T07:06:54.313Z,33.77
2023-03-07T07:09:23.417Z,33.17
2023-03-07T07:11:50.192Z,33.40
2023-03-07T07:14:16.958Z,31.03
2023-03-07T07:16:43.798Z,30.37
2023-03-07T07:19:10.601Z,29.83
2023-03-07T07:21:37.633Z,30.77
2023-03-07T07:24:04.896Z,33.90
2023-03-07T07:26:34.285Z,33.90
2023-03-07T07:29:01.076Z,33.63
2023-03-07T07:31:30.541Z,30.97
2023-03-07T07:33:57.359Z,32.20
2023-03-07T07:36:24.237Z,32.40
2023-03-07T07:38:51.036Z,31.60
2023-03-07T07:41:22.718Z,33.00
2023-03-07T07:43:52.626Z,31.43
2023-03-07T07:46:22.579Z,33.33
2023-03-07T07:48:49.546Z,32.80
2023-03-07T07:51:16.362Z,32.97
2023-03-07T07:53:43.210Z,31.20
2023-03-07T07:56:09.990Z,31.23
2023-03-07T07:58:36.753Z,32.00
2023-03-07T08:01:19.366Z,31.37
2023-03-07T08:03:46.280Z,30.13
2023-03-07T08:06:13.303Z,30.93
2023-03-07T08:08:40.070Z,29.47
2023-03-07T08:11:07.383Z,27.77
2023-03-07T08:13:34.176Z,26.97
2023-03-07T08:16:09.235Z,25.40
2023-03-07T08:18:36.046Z,24.87
2023-03-07T08:21:02.832Z,23.27
2023-03-07T08:23:29.633Z,23.70
2023-03-07T08:26:01.142Z,22.50
2023-03-07T08:28:27.946Z,21.77
2023-03-07T08:30:56.919Z,21.87
2023-03-07T08:33:26.227Z,22.60
2023-03-07T08:35:55.470Z,22.33
2023-03-07T08:38:22.287Z,21.97
2023-03-07T08:40:49.061Z,21.63
2023-03-07T08:43:15.832Z,22.20
2023-03-07T08:45:42.680Z,20.20
2023-03-07T08:48:10.215Z,20.50
2023-03-07T08:50:37.041Z,21.93
2023-03-07T08:53:03.909Z,20.27
2023-03-07T08:55:30.698Z,21.53
2023-03-07T08:57:57.483Z,21.80
2023-03-07T09:00:26.738Z,23.10
2023-03-07T09:03:01.672Z,21.77
2023-03-07T09:05:29.214Z,22.13
2023-03-07T09:07:56.140Z,21.97
2023-03-07T09:10:23.063Z,22.20
2023-03-07T09:12:52.024Z,22.20
2023-03-07T09:15:18.960Z,21.57
2023-03-07T09:17:45.750Z,23.07
2023-03-07T09:20:16.283Z,22.20
2023-03-07T09:22:43.050Z,21.60
2023-03-07T09:25:10.205Z,22.67
2023-03-07T09:27:37.044Z,23.47
2023-03-07T09:30:04.562Z,22.33
2023-03-07T09:32:34.437Z,23.43
2023-03-07T09:35:01.228Z,23.80
2023-03-07T09:37:27.998Z,24.20
2023-03-07T09:39:54.767Z,24.67
2023-03-07T09:42:34.378Z,23.97
2023-03-07T09:45:10.467Z,24.23
2023-03-07T09:47:46.300Z,24.93
2023-03-07T09:50:34.676Z,24.73
2023-03-07T09:53:03.205Z,25.37
2023-03-07T09:55:33.111Z,24.70
2023-03-07T09:58:01.250Z,24.93
2023-03-07T10:00:36.056Z,24.20
2023-03-07T10:03:35.639Z,25.67
2023-03-07T10:06:14.351Z,23.87
2023-03-07T10:08:43.223Z,25.07
2023-03-07T10:11:25.171Z,25.43
2023-03-07T10:14:18.550Z,27.13
2023-03-07T10:16:51.301Z,27.47
2023-03-07T10:19:39.547Z,26.83
2023-03-07T10:22:17.298Z,27.93
2023-03-07T10:25:16.586Z,26.70
2023-03-07T10:27:45.887Z,26.27
2023-03-07T10:30:21.061Z,27.53
2023-03-07T10:32:55.467Z,28.20
2023-03-07T10:35:32.536Z,27.87
2023-03-07T10:38:19.945Z,29.07
2023-03-07T10:40:56.421Z,28.40
2023-03-07T10:43:33.323Z,29.60
2023-03-07T10:46:23.709Z,30.70
2023-03-07T10:48:55.026Z,30.07
2023-03-07T10:51:31.284Z,30.07
2023-03-07T10:53:58.175Z,30.47
2023-03-07T10:56:24.954Z,30.10
2023-03-07T10:59:03.940Z,29.77
2023-03-07T11:01:33.597Z,29.90
2023-03-07T11:04:05.414Z,28.93
2023-03-07T11:06:51.177Z,30.17
2023-03-07T11:09:29.879Z,29.50
2023-03-07T11:12:06.480Z,31.37
2023-03-07T11:15:10.495Z,30.70
2023-03-07T11:17:47.736Z,30.97
2023-03-07T11:20:49.838Z,30.57
2023-03-07T11:23:24.663Z,30.27
2023-03-07T11:25:52.614Z,31.77
2023-03-07T11:28:33.430Z,30.80
2023-03-07T11:31:06.185Z,29.63
2023-03-07T11:34:06.476Z,31.43
2023-03-07T11:36:36.087Z,28.97
2023-03-07T11:39:18.041Z,29.43
2023-03-07T11:41:49.713Z,29.60
2023-03-07T11:44:35.702Z,31.03
2023-03-07T11:47:34.969Z,30.10
2023-03-07T11:50:19.622Z,28.40
2023-03-07T11:52:55.435Z,27.67
2023-03-07T11:55:25.356Z,27.97
2023-03-07T11:58:21.772Z,25.93
2023-03-07T12:01:18.817Z,26.07
2023-03-07T12:03:53.961Z,27.13
2023-03-07T12:06:36.310Z,25.73
2023-03-07T12:09:05.958Z,25.93
2023-03-07T12:11:47.694Z,26.40
2023-03-07T12:14:20.427Z,25.30
2023-03-07T12:17:05.618Z,25.47
2023-03-07T12:19:44.583Z,23.13
2023-03-07T12:22:46.440Z,24.30
2023-03-07T12:25:35.569Z,24.40
2023-03-07T12:28:25.954Z,24.60
2023-03-07T12:31:08.030Z,24.80
2023-03-07T12:33:48.876Z,24.17
2023-03-07T12:36:27.812Z,25.23
2023-03-07T12:39:08.958Z,25.37
2023-03-07T12:41:47.753Z,24.57
2023-03-07T12:44:21.603Z,22.70
2023-03-07T12:46:51.727Z,22.00
2023-03-07T12:49:49.705Z,24.00
2023-03-07T12:52:46.145Z,22.47
2023-03-07T12:55:28.821Z,21.97
2023-03-07T12:58:04.495Z,22.40
2023-03-07T13:00:34.843Z,21.73
2023-03-07T13:03:04.328Z,21.73
2023-03-07T13:05:31.116Z,22.13
2023-03-07T13:07:57.965Z,20.17
2023-03-07T13:10:27.687Z,20.97
2023-03-07T13:12:56.693Z,19.87
2023-03-07T13:15:25.468Z,19.93
2023-03-07T13:17:52.419Z,21.13
2023-03-07T13:20:28.398Z,20.33
2023-03-07T13:22:58.394Z,19.40
2023-03-07T13:25:49.358Z,20.53
2023-03-07T13:28:34.702Z,19.37
2023-03-07T13:31:28.244Z,19.93
2023-03-07T13:33:57.239Z,19.80
2023-03-07T13:36:35.899Z,19.50
2023-03-07T13:39:13.941Z,19.83
2023-03-07T13:41:48.213Z,18.77
2023-03-07T13:44:38.523Z,20.30
2023-03-07T13:47:25.544Z,19.27
2023-03-07T13:49:52.373Z,21.03
2023-03-07T13:52:30.340Z,18.43
2023-03-07T13:54:57.790Z,19.17
2023-03-07T13:57:27.134Z,19.20
2023-03-07T13:59:56.762Z,18.23
2023-03-07T14:02:23.585Z,17.90
2023-03-07T14:04:54.634Z,18.20
2023-03-07T14:07:28.921Z,17.00
2023-03-07T14:10:27.900Z,16.70
2023-03-07T14:13:17.067Z,16.47
2023-03-07T14:15:49.915Z,16.77
2023-03-07T14:18:16.772Z,16.37
2023-03-07T14:21:02.508Z,16.67
2023-03-07T14:24:07.237Z,16.37
2023-03-07T14:26:34.562Z,15.67
2023-03-07T14:29:03.400Z,15.70
2023-03-07T14:31:38.877Z,15.67
2023-03-07T14:34:24.540Z,14.97
2023-03-07T14:37:01.368Z,15.53
2023-03-07T14:39:55.243Z,14.80
2023-03-07T14:42:56.240Z,14.13
2023-03-07T14:45:42.190Z,13.83
2023-03-07T14:48:30.958Z,14.47
2023-03-07T14:50:59.745Z,14.07
2023-03-07T14:53:29.662Z,14.90
2023-03-07T14:56:01.635Z,14.23
2023-03-07T14:58:29.840Z,13.23
2023-03-07T15:01:11.852Z,13.27
2023-03-07T15:03:54.303Z,13.90
2023-03-07T15:06:25.939Z,14.20
2023-03-07T15:08:53.230Z,13.93
2023-03-07T15:11:33.507Z,13.73
2023-03-07T15:14:32.144Z,13.97
2023-03-07T15:17:05.092Z,13.00
2023-03-07T15:19:48.173Z,13.03
2023-03-07T15:22:25.280Z,12.47
2023-03-07T15:24:54.363Z,12.63
2023-03-07T15:27:31.483Z,11.27
2023-03-07T15:30:02.017Z,12.37
2023-03-07T15:32:37.055Z,12.77
2023-03-07T15:35:11.013Z,12.50
2023-03-07T15:37:56.972Z,13.27
2023-03-07T15:40:37.462Z,12.60
2023-03-07T15:43:04.830Z,13.33
2023-03-07T15:45:40.871Z,12.03
2023-03-07T15:48:21.788Z,12.40
2023-03-07T15:51:15.654Z,11.50
2023-03-07T15:53:44.863Z,12.10
2023-03-07T15:56:30.630Z,12.10
2023-03-07T15:59:03.005Z,12.77
2023-03-07T16:01:29.869Z,13.10
2023-03-07T16:04:01.550Z,12.30
2023-03-07T16:06:44.641Z,12.43
2023-03-07T16:09:17.351Z,13.20
2023-03-07T16:11:49.284Z,12.40
2023-03-07T16:14:30.124Z,12.13
2023-03-07T16:17:01.196Z,12.77
2023-03-07T16:19:30.581Z,13.07
2023-03-07T16:21:59.944Z,12.83
2023-03-07T16:24:26.756Z,13.00
2023-03-07T16:26:53.549Z,12.67
2023-03-07T16:29:21.871Z,13.30
2023-03-07T16:31:50.995Z,13.83
2023-03-07T16:34:19.430Z,13.60
2023-03-07T16:36:48.125Z,12.70
2023-03-07T16:39:15.278Z,13.10
2023-03-07T16:41:51.028Z,12.90
2023-03-07T16:44:22.026Z,12.90
2023-03-07T16:46:56.216Z,13.20
2023-03-07T16:49:23.355Z,13.63
2023-03-07T16:52:05.033Z,13.57
2023-03-07T16:54:32.795Z,12.93
2023-03-07T16:57:02.063Z,13.90
2023-03-07T16:59:36.020Z,13.77
2023-03-07T17:02:03.373Z,13.03
2023-03-07T17:04:30.214Z,14.00
2023-03-07T17:07:04.401Z,14.03
2023-03-07T17:09:31.877Z,14.10
2023-03-07T17:12:00.760Z,14.23
2023-03-07T17:14:27.537Z,14.10
2023-03-07T17:16:54.294Z,15.63
2023-03-07T17:19:28.592Z,14.37
2023-03-07T17:21:55.654Z,13.97
2023-03-07T17:24:24.923Z,14.83
2023-03-07T17:26:53.525Z,15.93
2023-03-07T17:29:41.447Z,14.87
2023-03-07T17:32:08.362Z,15.10
2023-03-07T17:34:35.903Z,15.63
2023-03-07T17:37:05.256Z,15.30
2023-03-07T17:39:34.834Z,14.73
2023-03-07T17:42:04.132Z,14.43
2023-03-07T17:44:30.981Z,15.23
2023-03-07T17:46:57.901Z,14.90
2023-03-07T17:49:27.430Z,15.20
2023-03-07T17:51:54.229Z,15.30
2023-03-07T17:54:21.034Z,15.30
2023-03-07T17:56:47.820Z,15.33
2023-03-07T17:59:14.654Z,15.80
2023-03-07T18:01:44.116Z,14.80
2023-03-07T18:04:11.070Z,15.60
2023-03-07T18:06:41.076Z,16.40
2023-03-07T18:09:08.003Z,14.93
2023-03-07T18:11:35.263Z,14.97
2023-03-07T18:14:02.093Z,15.37
2023-03-07T18:16:28.930Z,14.60
2023-03-07T18:19:00.045Z,14.63
2023-03-07T18:21:29.688Z,16.20
2023-03-07T18:23:56.759Z,15.40
2023-03-07T18:26:26.044Z,15.50
2023-03-07T18:28:53.817Z,15.90
2023-03-07T18:31:22.490Z,14.40
2023-03-07T18:33:52.769Z,15.60
2023-03-07T18:36:21.233Z,15.77
2023-03-07T18:38:48.205Z,14.77
2023-03-07T18:41:22.410Z,14.87
2023-03-07T18:43:51.819Z,13.97
2023-03-07T18:46:19.558Z,14.80
2023-03-07T18:48:46.605Z,15.17
2023-03-07T18:51:17.769Z,14.23
2023-03-07T18:53:44.642Z,14.00
2023-03-07T18:56:16.791Z,14.50
2023-03-07T18:58:43.805Z,13.50
2023-03-07T19:01:20.252Z,12.67
2023-03-07T19:03:50.534Z,13.17
2023-03-07T19:06:20.497Z,12.93
2023-03-07T19:08:49.799Z,12.70
2023-03-07T19:11:16.887Z,13.03
2023-03-07T19:13:43.933Z,12.47
2023-03-07T19:16:22.816Z,12.50
2023-03-07T19:18:50.167Z,12.40
2023-03-07T19:21:24.662Z,12.17
2023-03-07T19:23:52.439Z,13.17
2023-03-07T19:26:19.995Z,13.50
2023-03-07T19:28:50.531Z,11.37
2023-03-07T19:31:21.244Z,12.10
2023-03-07T19:33:50.439Z,12.00
2023-03-07T19:36:22.035Z,12.20
2023-03-07T19:38:49.816Z,12.87
2023-03-07T19:41:18.048Z,12.83
2023-03-07T19:43:47.445Z,12.47
2023-03-07T19:46:15.399Z,12.07
2023-03-07T19:48:44.071Z,11.73
2023-03-07T19:51:14.597Z,11.17
2023-03-07T19:53:42.264Z,12.37
2023-03-07T19:56:14.704Z,11.47
2023-03-07T19:58:41.549Z,11.73
2023-03-07T20:01:09.600Z,11.30
2023-03-07T20:03:38.657Z,11.47
2023-03-07T20:06:06.396Z,11.60
2023-03-07T20:08:33.750Z,12.20
2023-03-07T20:11:14.550Z,10.77
2023-03-07T20:13:45.645Z,11.87
2023-03-07T20:16:15.107Z,12.00
2023-03-07T20:18:42.086Z,11.63
2023-03-07T20:21:13.390Z,10.90
2023-03-07T20:23:42.259Z,10.20
2023-03-07T20:26:13.272Z,11.20
2023-03-07T20:28:40.203Z,11.40
2023-03-07T20:31:12.879Z,10.93
2023-03-07T20:33:40.900Z,9.37
2023-03-07T20:36:18.344Z,10.70
2023-03-07T20:38:56.524Z,10.70
2023-03-07T20:41:29.934Z,10.77
2023-03-07T20:44:04.808Z,11.20
2023-03-07T20:46:32.037Z,10.23
2023-03-07T20:48:59.866Z,9.60
2023-03-07T20:51:30.716Z,11.17
2023-03-07T20:54:01.924Z,9.93
2023-03-07T20:56:30.306Z,9.93
2023-03-07T20:58:59.955Z,9.33
2023-03-07T21:01:28.466Z,9.43
2023-03-07T21:03:55.325Z,10.03
2023-03-07T21:06:22.192Z,10.07
2023-03-07T21:08:49.187Z,9.80
2023-03-07T21:11:18.027Z,9.70
2023-03-07T21:13:48.240Z,9.07
2023-03-07T21:16:15.997Z,9.77
2023-03-07T21:18:42.897Z,9.10
2023-03-07T21:21:17.103Z,10.37
2023-03-07T21:23:46.508Z,9.47
2023-03-07T21:26:15.181Z,9.60
2023-03-07T21:28:44.134Z,9.50
2023-03-07T21:31:13.990Z,9.53
2023-03-07T21:33:41.848Z,9.50
2023-03-07T21:36:09.775Z,9.33
2023-03-07T21:38:39.887Z,8.40
2023-03-07T21:41:06.868Z,8.70
2023-03-07T21:43:36.476Z,9.63
2023-03-07T21:46:13.063Z,9.53
2023-03-07T21:48:39.954Z,9.57
2023-03-07T21:51:09.248Z,9.67
2023-03-07T21:53:38.648Z,9.17
2023-03-07T21:56:12.512Z,9.13
2023-03-07T21:58:42.388Z,9.53
2023-03-07T22:01:15.888Z,9.03
2023-03-07T22:03:42.904Z,9.20
2023-03-07T22:06:13.505Z,8.67
2023-03-07T22:08:40.622Z,8.90
2023-03-07T22:11:08.141Z,9.47
2023-03-07T22:13:36.228Z,9.33
2023-03-07T22:16:08.121Z,10.03
2023-03-07T22:18:35.198Z,8.73
2023-03-07T22:21:14.791Z,9.80
2023-03-07T22:23:42.132Z,10.70
2023-03-07T22:26:11.947Z,8.77
2023-03-07T22:28:40.598Z,7.90
2023-03-07T22:31:12.282Z,7.60
2023-03-07T22:33:39.578Z,7.37
2023-03-07T22:36:07.237Z,7.43
2023-03-07T22:38:34.240Z,6.93
2023-03-07T22:41:07.418Z,6.67
2023-03-07T22:43:34.849Z,6.77
2023-03-07T22:46:01.700Z,5.67
2023-03-07T22:48:30.809Z,5.57
2023-03-07T22:50:57.929Z,3.63
2023-03-07T22:53:27.340Z,2.67
2023-03-07T22:55:54.239Z,2.17
2023-03-07T22:58:25.523Z,1.77
2023-03-07T23:00:52.463Z,1.60
2023-03-07T23:03:19.269Z,2.00
2023-03-07T23:05:46.936Z,1.90
2023-03-07T23:08:13.991Z,1.50
2023-03-07T23:10:40.746Z,1.53
2023-03-07T23:13:09.788Z,1.80
2023-03-07T23:15:40.349Z,1.50
2023-03-07T23:18:07.169Z,1.70
2023-03-07T23:20:35.775Z,2.17
2023-03-07T23:23:05.094Z,2.30
2023-03-07T23:25:33.094Z,2.23
2023-03-07T23:28:00.001Z,2.10
2023-03-07T23:30:26.809Z,2.20
2023-03-07T23:32:56.101Z,2.40
2023-03-07T23:35:23.936Z,2.40
2023-03-07T23:37:50.817Z,2.37
2023-03-07T23:40:19.976Z,2.53
2023-03-07T23:42:48.930Z,2.10
2023-03-07T23:45:15.788Z,2.17
2023-03-07T23:47:42.607Z,1.77
2023-03-07T23:50:12.188Z,2.30
2023-03-07T23:52:38.948Z,1.87
2023-03-07T23:55:09.033Z,2.20
2023-03-07T23:57:38.554Z,2.07
